createdAt,value
2023-04-06T00:02:11.994Z,19.75
2023-04-06T00:05:14.480Z,17.15
2023-04-06T00:08:16.920Z,17.50
2023-04-06T00:11:19.354Z,20.10
2023-04-06T00:14:21.776Z,18.67
2023-04-06T00:17:24.114Z,21.60
2023-04-06T00:20:26.762Z,19.95
2023-04-06T00:23:29.106Z,18.20
2023-04-06T00:26:31.466Z,17.00
2023-04-06T00:29:33.908Z,16.80
2023-04-06T00:32:37.256Z,16.65
2023-04-06T00:35:39.964Z,14.25
2023-04-06T00:38:42.436Z,17.60
2023-04-06T00:41:48.355Z,18.60
2023-04-06T00:44:50.679Z,19.33
2023-04-06T00:47:53.033Z,19.60
2023-04-06T00:50:55.590Z,17.27
2023-04-06T00:53:58.201Z,16.50
2023-04-06T00:57:01.059Z,16.40
2023-04-06T01:00:06.342Z,17.23
2023-04-06T01:03:09.598Z,18.27
2023-04-06T01:06:16.304Z,16.77
2023-04-06T01:09:20.797Z,17.50
2023-04-06T01:12:23.515Z,18.60
2023-04-06T01:15:26.365Z,15.95
2023-04-06T01:18:29.506Z,15.88
2023-04-06T01:21:55.109Z,17.85
2023-04-06T01:24:57.838Z,16.65
2023-04-06T01:28:06.730Z,15.75
2023-04-06T01:31:30.823Z,14.07
2023-04-06T01:34:33.752Z,15.18
2023-04-06T01:37:39.411Z,13.68
2023-04-06T01:40:45.065Z,15.52
2023-04-06T01:43:50.205Z,12.73
2023-04-06T01:46:52.744Z,12.98
2023-04-06T01:49:55.655Z,14.65
2023-04-06T01:52:58.596Z,9.10
2023-04-06T01:56:03.491Z,3.20
2023-04-06T01:59:13.726Z,4.10
2023-04-06T02:02:19.045Z,6.20
2023-04-06T02:05:32.583Z,13.02
2023-04-06T02:08:36.529Z,12.25
2023-04-06T02:11:38.821Z,9.63
2023-04-06T02:14:42.290Z,9.35
2023-04-06T02:17:45.316Z,6.20
2023-04-06T02:20:47.671Z,12.15
2023-04-06T02:23:50.580Z,11.80
2023-04-06T02:26:53.957Z,10.20
2023-04-06T02:29:56.462Z,11.52
2023-04-06T02:32:59.401Z,10.95
2023-04-06T02:36:02.561Z,10.63
2023-04-06T02:39:05.611Z,10.68
2023-04-06T02:42:08.183Z,12.93
2023-04-06T02:45:10.527Z,14.50
2023-04-06T02:48:18.397Z,16.48
2023-04-06T02:51:21.233Z,15.07
2023-04-06T02:54:29.992Z,17.42
2023-04-06T02:57:32.875Z,15.05
2023-04-06T03:00:35.371Z,15.02
2023-04-06T03:03:37.964Z,16.45
2023-04-06T03:06:46.355Z,22.02
2023-04-06T03:09:58.876Z,14.63
2023-04-06T03:13:01.126Z,18.67
2023-04-06T03:16:18.388Z,19.85
2023-04-06T03:19:20.841Z,17.40
2023-04-06T03:22:23.573Z,16.70
2023-04-06T03:25:26.076Z,14.25
2023-04-06T03:28:31.815Z,14.55
2023-04-06T03:31:38.436Z,23.15
2023-04-06T03:35:04.076Z,17.48
2023-04-06T03:38:07.508Z,20.98
2023-04-06T03:41:09.863Z,16.30
2023-04-06T03:44:12.538Z,16.67
2023-04-06T03:47:15.047Z,17.13
2023-04-06T03:50:17.869Z,19.33
2023-04-06T03:53:21.144Z,16.02
2023-04-06T03:56:23.657Z,17.42
2023-04-06T03:59:26.217Z,30.73
2023-04-06T04:02:29.252Z,16.70
2023-04-06T04:05:31.769Z,21.55
2023-04-06T04:08:34.343Z,22.20
2023-04-06T04:11:37.772Z,20.38
2023-04-06T04:14:40.678Z,23.02
2023-04-06T04:17:47.858Z,33.55
2023-04-06T04:20:50.337Z,28.20
2023-04-06T04:23:55.791Z,27.42
2023-04-06T04:26:58.284Z,26.25
2023-04-06T04:30:01.601Z,22.80
2023-04-06T04:33:04.265Z,22.48
2023-04-06T04:36:06.866Z,25.58
2023-04-06T04:39:15.631Z,15.68
2023-04-06T04:42:22.003Z,16.73
2023-04-06T04:45:28.150Z,17.02
2023-04-06T04:48:31.366Z,20.47
2023-04-06T04:51:37.613Z,16.50
2023-04-06T04:54:48.986Z,13.18
2023-04-06T04:57:59.474Z,18.55
2023-04-06T05:01:17.274Z,20.52
2023-04-06T05:07:24.474Z,13.25
2023-04-06T05:10:29.181Z,11.75
2023-04-06T05:13:36.670Z,14.15
2023-04-06T05:16:45.025Z,13.55
2023-04-06T05:19:47.684Z,9.73
2023-04-06T05:22:54.258Z,22.08
2023-04-06T05:25:56.863Z,19.20
2023-04-06T05:28:59.381Z,12.40
2023-04-06T05:32:04.852Z,12.63
2023-04-06T05:35:08.349Z,13.52
2023-04-06T05:38:11.369Z,34.97
2023-04-06T05:41:14.049Z,14.57
2023-04-06T05:44:17.944Z,24.02
2023-04-06T05:47:25.177Z,26.30
2023-04-06T05:50:39.413Z,33.85
2023-04-06T05:53:42.680Z,28.23
2023-04-06T05:56:45.260Z,23.98
2023-04-06T05:59:48.600Z,14.60
2023-04-06T06:02:51.977Z,15.60
2023-04-06T06:06:03.614Z,41.08
2023-04-06T06:09:17.880Z,24.58
2023-04-06T06:12:30.288Z,13.63
2023-04-06T06:15:33.399Z,23.92
2023-04-06T06:18:37.562Z,24.60
2023-04-06T06:21:40.660Z,20.30
2023-04-06T06:24:43.269Z,59.75
2023-04-06T06:27:47.292Z,26.65
2023-04-06T06:30:52.263Z,12.57
2023-04-06T06:33:58.214Z,36.55
2023-04-06T06:37:01.948Z,11.87
2023-04-06T06:40:04.634Z,12.55
2023-04-06T06:43:08.403Z,28.27
2023-04-06T06:46:33.417Z,14.07
2023-04-06T06:49:35.802Z,17.80
2023-04-06T06:52:38.169Z,19.33
2023-04-06T06:55:40.639Z,9.95
2023-04-06T06:58:43.006Z,8.48
2023-04-06T07:01:45.535Z,18.15
2023-04-06T07:04:51.305Z,8.02
2023-04-06T07:07:54.208Z,13.55
2023-04-06T07:10:59.689Z,11.70
2023-04-06T07:14:02.205Z,9.35
2023-04-06T07:17:04.680Z,14.13
2023-04-06T07:20:08.097Z,5.80
2023-04-06T07:23:10.960Z,14.30
2023-04-06T07:26:14.048Z,7.65
2023-04-06T07:29:16.754Z,4.25
2023-04-06T07:32:19.271Z,14.20
2023-04-06T07:35:22.542Z,8.95
2023-04-06T07:38:25.309Z,4.57
2023-04-06T07:41:28.682Z,9.55
2023-04-06T07:44:32.420Z,2.25
2023-04-06T07:47:35.749Z,5.85
2023-04-06T07:50:38.804Z,4.57
2023-04-06T07:53:42.751Z,4.15
2023-04-06T07:56:45.474Z,4.63
2023-04-06T07:59:48.414Z,6.03
2023-04-06T08:02:51.027Z,24.38
2023-04-06T08:05:54.364Z,6.13
2023-04-06T08:08:57.769Z,5.32
2023-04-06T08:12:00.372Z,10.07
2023-04-06T08:15:03.858Z,5.07
2023-04-06T08:18:06.804Z,14.55
2023-04-06T08:21:09.275Z,7.10
2023-04-06T08:24:11.525Z,3.72
2023-04-06T08:27:15.740Z,4.18
2023-04-06T08:33:22.496Z,5.90
2023-04-06T08:36:24.839Z,5.50
2023-04-06T08:39:28.696Z,6.93
2023-04-06T08:42:34.118Z,7.90
2023-04-06T08:45:37.045Z,4.03
2023-04-06T08:48:43.780Z,4.07
2023-04-06T08:51:46.352Z,10.57
2023-04-06T08:54:49.278Z,4.28
2023-04-06T08:57:54.829Z,13.77
2023-04-06T09:00:58.056Z,5.10
2023-04-06T09:04:01.941Z,4.43
2023-04-06T09:07:04.634Z,5.70
2023-04-06T09:10:07.678Z,3.47
2023-04-06T09:13:10.915Z,9.15
2023-04-06T09:16:13.881Z,8.63
2023-04-06T09:19:16.313Z,3.22
2023-04-06T09:22:19.595Z,11.65
2023-04-06T09:25:29.586Z,8.18
2023-04-06T09:28:43.121Z,11.40
2023-04-06T09:31:45.593Z,3.92
2023-04-06T09:34:50.795Z,7.80
2023-04-06T09:37:54.374Z,11.90
2023-04-06T09:41:01.359Z,3.27
2023-04-06T09:44:04.667Z,6.88
2023-04-06T09:47:10.887Z,14.13
2023-04-06T09:50:15.066Z,5.25
2023-04-06T09:53:20.485Z,16.40
2023-04-06T09:56:27.066Z,4.15
2023-04-06T09:59:46.299Z,17.10
2023-04-06T10:03:01.060Z,7.78
2023-04-06T10:06:06.579Z,46.05
2023-04-06T10:09:10.497Z,7.15
2023-04-06T10:15:16.415Z,34.10
2023-04-06T10:18:21.401Z,9.82
2023-04-06T10:21:28.837Z,15.38
2023-04-06T10:24:31.541Z,43.22
2023-04-06T10:27:34.563Z,29.92
2023-04-06T10:30:44.597Z,24.10
2023-04-06T10:34:02.179Z,4.65
2023-04-06T10:37:20.117Z,11.18
2023-04-06T10:40:26.634Z,9.70
2023-04-06T10:43:36.635Z,3.90
2023-04-06T10:46:39.038Z,3.42
2023-04-06T10:49:41.479Z,3.45
2023-04-06T10:52:45.797Z,3.45
2023-04-06T10:55:48.809Z,13.75
2023-04-06T10:58:53.877Z,3.05
2023-04-06T11:01:57.043Z,5.70
2023-04-06T11:05:00.440Z,8.68
2023-04-06T11:08:02.756Z,9.33
2023-04-06T11:11:09.721Z,7.93
2023-04-06T11:14:12.145Z,5.00
2023-04-06T11:17:14.683Z,3.72
2023-04-06T11:20:18.564Z,4.85
2023-04-06T11:23:27.556Z,7.25
2023-04-06T11:26:29.875Z,4.82
2023-04-06T11:29:34.055Z,6.65
2023-04-06T11:32:46.763Z,14.80
2023-04-06T11:35:49.124Z,9.38
2023-04-06T11:38:51.646Z,9.23
2023-04-06T11:41:56.764Z,11.35
2023-04-06T11:45:00.229Z,6.20
2023-04-06T11:48:02.782Z,13.95
2023-04-06T11:51:06.212Z,10.00
2023-04-06T11:54:08.680Z,5.50
2023-04-06T11:57:11.062Z,6.40
2023-04-06T12:00:14.420Z,6.55
2023-04-06T12:03:16.982Z,4.10
2023-04-06T12:06:19.685Z,6.30
2023-04-06T12:09:22.131Z,20.42
2023-04-06T12:12:24.467Z,4.95
2023-04-06T12:15:26.945Z,3.80
2023-04-06T12:18:29.541Z,3.38
2023-04-06T12:21:32.789Z,9.73
2023-04-06T12:24:35.137Z,2.93
2023-04-06T12:27:37.430Z,7.70
2023-04-06T12:30:40.734Z,14.48
2023-04-06T12:33:43.124Z,6.40
2023-04-06T12:36:45.549Z,3.38
2023-04-06T12:39:48.137Z,13.55
2023-04-06T12:42:50.513Z,6.70
2023-04-06T12:45:53.267Z,9.10
2023-04-06T12:48:56.238Z,4.50
2023-04-06T12:51:58.616Z,8.70
2023-04-06T12:55:04.705Z,8.35
2023-04-06T12:58:07.210Z,8.85
2023-04-06T13:01:09.735Z,17.67
2023-04-06T13:04:12.331Z,6.72
2023-04-06T13:07:15.450Z,11.27
2023-04-06T13:10:17.984Z,13.13
2023-04-06T13:13:30.690Z,7.47
2023-04-06T13:16:33.427Z,5.80
2023-04-06T13:19:35.943Z,10.23
2023-04-06T13:22:38.365Z,11.48
2023-04-06T13:25:40.798Z,8.30
2023-04-06T13:28:43.384Z,9.10
2023-04-06T13:31:46.053Z,11.98
2023-04-06T13:34:49.937Z,7.63
2023-04-06T13:37:53.334Z,12.52
2023-04-06T13:40:55.932Z,18.42
2023-04-06T13:43:59.032Z,54.90
2023-04-06T13:47:01.553Z,24.15
2023-04-06T13:50:04.845Z,8.05
2023-04-06T13:53:07.240Z,7.10
2023-04-06T13:56:09.845Z,13.23
2023-04-06T13:59:12.303Z,9.10
2023-04-06T14:02:14.849Z,12.38
2023-04-06T14:05:18.669Z,10.13
2023-04-06T14:08:21.914Z,6.97
2023-04-06T14:11:24.331Z,14.20
2023-04-06T14:14:27.355Z,11.95
2023-04-06T14:17:29.687Z,13.15
2023-04-06T14:20:35.555Z,11.63
2023-04-06T14:23:38.223Z,6.43
2023-04-06T14:26:42.489Z,20.02
2023-04-06T14:29:44.794Z,9.05
2023-04-06T14:32:47.108Z,5.65
2023-04-06T14:35:49.530Z,7.55
2023-04-06T14:38:53.196Z,5.13
2023-04-06T14:41:55.826Z,4.47
2023-04-06T14:44:59.225Z,7.20
2023-04-06T14:48:02.632Z,3.20
2023-04-06T14:51:05.093Z,5.45
2023-04-06T14:54:07.387Z,4.10
2023-04-06T14:57:09.872Z,3.10
2023-04-06T15:00:13.042Z,2.88
2023-04-06T15:03:16.610Z,3.72
2023-04-06T15:06:21.638Z,3.72
2023-04-06T15:09:24.724Z,4.28
2023-04-06T15:12:27.085Z,7.65
2023-04-06T15:15:29.828Z,4.55
2023-04-06T15:18:32.498Z,5.10
2023-04-06T15:21:34.866Z,7.13
2023-04-06T15:24:37.275Z,7.43
2023-04-06T15:27:39.806Z,9.73
2023-04-06T15:30:42.268Z,6.57
2023-04-06T15:33:45.050Z,4.97
2023-04-06T15:36:47.737Z,5.00
2023-04-06T15:39:50.142Z,4.65
2023-04-06T15:42:52.650Z,12.07
2023-04-06T15:45:55.124Z,4.03
2023-04-06T15:48:57.510Z,4.28
2023-04-06T15:51:59.993Z,5.20
2023-04-06T15:55:04.126Z,7.40
2023-04-06T16:01:17.785Z,5.88
2023-04-06T16:04:20.388Z,10.68
2023-04-06T16:07:23.447Z,6.30
2023-04-06T16:10:25.897Z,3.30
2023-04-06T16:13:28.437Z,9.98
2023-04-06T16:16:31.007Z,11.20
2023-04-06T16:19:33.485Z,9.27
2023-04-06T16:22:36.744Z,5.38
2023-04-06T16:25:39.536Z,4.68
2023-04-06T16:28:43.042Z,3.22
2023-04-06T16:31:48.128Z,4.45
2023-04-06T16:34:51.037Z,6.72
2023-04-06T16:37:53.398Z,3.03
2023-04-06T16:41:04.556Z,2.97
2023-04-06T16:44:07.141Z,4.43
2023-04-06T16:47:09.554Z,3.22
2023-04-06T16:50:12.115Z,3.30
2023-04-06T16:53:14.595Z,3.60
2023-04-06T16:56:16.959Z,9.20
2023-04-06T16:59:19.345Z,4.03
2023-04-06T17:02:21.801Z,5.68
2023-04-06T17:05:26.852Z,16.30
2023-04-06T17:08:29.272Z,4.10
2023-04-06T17:11:45.597Z,5.90
2023-04-06T17:14:48.853Z,6.32
2023-04-06T17:17:52.330Z,4.72
2023-04-06T17:20:54.794Z,4.65
2023-04-06T17:23:57.231Z,6.68
2023-04-06T17:26:59.676Z,4.70
2023-04-06T17:30:06.487Z,8.48
2023-04-06T17:33:09.998Z,5.03
2023-04-06T17:36:12.771Z,3.80
2023-04-06T17:39:15.328Z,11.60
2023-04-06T17:42:18.401Z,10.15
2023-04-06T17:45:21.175Z,8.32
2023-04-06T17:48:23.711Z,6.13
2023-04-06T17:51:26.592Z,5.50
2023-04-06T17:54:28.911Z,7.22
2023-04-06T17:57:31.589Z,7.65
2023-04-06T18:00:34.045Z,5.38
2023-04-06T18:03:36.434Z,5.82
2023-04-06T18:06:38.873Z,8.98
2023-04-06T18:09:41.478Z,6.97
2023-04-06T18:12:43.875Z,6.65
2023-04-06T18:15:46.234Z,8.43
2023-04-06T18:18:50.051Z,4.68
2023-04-06T18:21:52.403Z,9.95
2023-04-06T18:24:54.805Z,5.32
2023-04-06T18:27:57.132Z,6.07
2023-04-06T18:31:00.241Z,8.05
2023-04-06T18:34:03.781Z,7.65
2023-04-06T18:37:06.445Z,9.10
2023-04-06T18:40:09.323Z,5.47
2023-04-06T18:43:11.826Z,7.55
2023-04-06T18:46:16.165Z,5.65
2023-04-06T18:49:18.594Z,9.25
2023-04-06T18:52:21.202Z,6.35
2023-04-06T18:55:23.611Z,6.22
2023-04-06T18:58:26.321Z,6.68
2023-04-06T19:01:30.555Z,5.47
2023-04-06T19:04:33.311Z,5.22
2023-04-06T19:07:36.144Z,5.80
2023-04-06T19:10:39.196Z,6.13
2023-04-06T19:13:42.381Z,7.07
2023-04-06T19:16:52.349Z,6.23
2023-04-06T19:19:57.727Z,7.13
2023-04-06T19:23:00.759Z,5.82
2023-04-06T19:26:03.457Z,6.45
2023-04-06T19:29:05.863Z,6.97
2023-04-06T19:32:10.894Z,6.18
2023-04-06T19:35:13.348Z,6.82
2023-04-06T19:38:16.098Z,9.70
2023-04-06T19:41:18.593Z,8.13
2023-04-06T19:44:22.479Z,5.95
2023-04-06T19:47:24.960Z,7.15
2023-04-06T19:50:27.240Z,5.97
2023-04-06T19:53:29.569Z,7.75
2023-04-06T19:56:32.206Z,7.28
2023-04-06T19:59:34.805Z,10.27
2023-04-06T20:02:37.549Z,8.38
2023-04-06T20:05:40.268Z,12.30
2023-04-06T20:08:42.732Z,7.82
2023-04-06T20:11:45.176Z,8.18
2023-04-06T20:14:47.477Z,8.23
2023-04-06T20:17:49.816Z,9.63
2023-04-06T20:20:52.349Z,10.30
2023-04-06T20:23:54.978Z,10.68
2023-04-06T20:26:58.345Z,7.22
2023-04-06T20:30:00.875Z,8.88
2023-04-06T20:33:03.363Z,7.50
2023-04-06T20:36:06.011Z,9.88
2023-04-06T20:39:08.393Z,15.85
2023-04-06T20:42:10.732Z,8.73
2023-04-06T20:45:13.222Z,8.55
2023-04-06T20:48:16.632Z,9.43
2023-04-06T20:51:23.854Z,9.63
2023-04-06T20:54:26.522Z,10.95
2023-04-06T20:57:28.896Z,14.52
2023-04-06T21:00:31.348Z,12.05
2023-04-06T21:03:34.085Z,11.85
2023-04-06T21:06:36.766Z,14.88
2023-04-06T21:09:40.205Z,13.23
2023-04-06T21:12:42.692Z,12.52
2023-04-06T21:15:45.137Z,13.75
2023-04-06T21:18:47.483Z,14.45
2023-04-06T21:21:49.975Z,12.82
2023-04-06T21:24:52.814Z,17.52
2023-04-06T21:27:55.281Z,14.20
2023-04-06T21:30:57.791Z,14.65
2023-04-06T21:34:00.363Z,13.43
2023-04-06T21:37:02.857Z,14.52
2023-04-06T21:40:05.872Z,15.77
2023-04-06T21:43:08.306Z,19.20
2023-04-06T21:46:10.739Z,16.38
2023-04-06T21:49:13.114Z,20.40
2023-04-06T21:52:15.638Z,20.33
2023-04-06T21:55:18.038Z,19.88
2023-04-06T21:58:20.450Z,26.08
2023-04-06T22:01:22.780Z,21.55
2023-04-06T22:04:25.641Z,25.95
2023-04-06T22:07:28.143Z,19.83
2023-04-06T22:10:31.031Z,26.02
2023-04-06T22:13:33.578Z,24.85
2023-04-06T22:16:36.404Z,28.75
2023-04-06T22:19:38.912Z,24.70
2023-04-06T22:22:42.031Z,22.77
2023-04-06T22:25:44.454Z,23.37
2023-04-06T22:28:46.778Z,21.52
2023-04-06T22:31:49.216Z,24.52
2023-04-06T22:34:51.619Z,22.05
2023-04-06T22:37:53.946Z,24.42
2023-04-06T22:40:57.300Z,24.95
2023-04-06T22:43:59.882Z,16.63
2023-04-06T22:47:02.302Z,25.40
2023-04-06T22:50:05.202Z,24.02
2023-04-06T22:53:07.612Z,22.73
2023-04-06T22:56:10.175Z,25.45
2023-04-06T22:59:12.768Z,25.98
2023-04-06T23:02:16.803Z,23.85
2023-04-06T23:08:21.495Z,23.63
2023-04-06T23:11:23.728Z,24.77
2023-04-06T23:14:26.125Z,22.52
2023-04-06T23:17:28.580Z,27.35
2023-04-06T23:20:31.049Z,27.40
2023-04-06T23:23:33.471Z,25.85
2023-04-06T23:26:35.810Z,22.98
2023-04-06T23:29:38.298Z,21.77
2023-04-06T23:32:40.909Z,24.33
2023-04-06T23:35:43.358Z,20.95
2023-04-06T23:38:46.029Z,24.90
2023-04-06T23:41:48.427Z,23.20
2023-04-06T23:44:50.822Z,21.05
2023-04-06T23:47:53.256Z,26.50
2023-04-06T23:50:55.924Z,24.90
2023-04-06T23:53:58.735Z,27.60
2023-04-06T23:57:01.677Z,25.03
